createdAt,value
2017-06-28T00:00:27.796Z,99.90
2017-06-28T00:02:56.239Z,99.90
2017-06-28T00:05:24.734Z,99.90
2017-06-28T00:07:53.215Z,99.90
2017-06-28T00:10:21.663Z,99.90
2017-06-28T00:12:50.099Z,99.90
2017-06-28T00:15:18.530Z,99.90
2017-06-28T00:17:47.105Z,99.90
2017-06-28T00:20:15.708Z,99.90
2017-06-28T00:22:44.183Z,99.90
2017-06-28T00:25:12.602Z,99.90
2017-06-28T00:27:41.047Z,99.90
2017-06-28T00:30:09.469Z,99.90
2017-06-28T00:32:37.931Z,99.90
2017-06-28T00:35:06.364Z,99.90
2017-06-28T00:37:35.560Z,99.90
2017-06-28T00:40:04.762Z,99.90
2017-06-28T00:42:33.967Z,99.90
2017-06-28T00:45:03.167Z,99.90
2017-06-28T00:47:32.366Z,99.90
2017-06-28T00:50:01.575Z,99.90
2017-06-28T00:52:30.011Z,99.90
2017-06-28T00:54:58.444Z,99.90
2017-06-28T00:57:27.562Z,99.90
2017-06-28T00:59:55.997Z,99.90
2017-06-28T01:02:24.559Z,99.90
2017-06-28T01:04:53.799Z,99.90
2017-06-28T01:07:22.995Z,99.90
2017-06-28T01:09:52.188Z,99.90
2017-06-28T01:12:21.594Z,99.90
2017-06-28T01:14:50.788Z,99.90
2017-06-28T01:17:19.971Z,99.90
2017-06-28T01:19:48.063Z,99.90
2017-06-28T01:22:17.258Z,99.90
2017-06-28T01:24:46.455Z,99.90
2017-06-28T01:27:15.639Z,99.90
2017-06-28T01:29:44.755Z,99.90
2017-06-28T01:32:13.623Z,99.90
2017-06-28T01:34:42.043Z,99.90
2017-06-28T01:37:10.476Z,99.90
2017-06-28T01:39:38.910Z,99.90
2017-06-28T01:42:07.323Z,99.90
2017-06-28T01:44:36.446Z,99.90
2017-06-28T01:47:04.518Z,99.90
2017-06-28T01:49:32.970Z,99.90
2017-06-28T01:52:01.763Z,99.90
2017-06-28T01:54:30.198Z,99.90
2017-06-28T01:56:59.384Z,99.90
2017-06-28T01:59:27.822Z,99.90
2017-06-28T02:01:56.268Z,99.90
2017-06-28T02:04:25.446Z,99.90
2017-06-28T02:06:54.650Z,99.90
2017-06-28T02:09:23.847Z,99.90
2017-06-28T02:11:53.047Z,99.90
2017-06-28T02:14:22.206Z,99.90
2017-06-28T02:16:50.684Z,99.90
2017-06-28T02:19:19.128Z,99.90
2017-06-28T02:21:47.811Z,99.90
2017-06-28T02:24:17.022Z,99.90
2017-06-28T02:26:45.444Z,99.90
2017-06-28T02:29:13.863Z,99.90
2017-06-28T02:31:43.071Z,99.90
2017-06-28T02:34:12.253Z,99.90
2017-06-28T02:36:40.700Z,99.90
2017-06-28T02:39:09.136Z,99.90
2017-06-28T02:41:38.343Z,99.90
2017-06-28T02:44:06.774Z,99.90
2017-06-28T02:46:35.211Z,99.90
2017-06-28T02:49:03.671Z,99.90
2017-06-28T02:51:32.854Z,99.90
2017-06-28T02:54:01.302Z,99.90
2017-06-28T02:56:29.726Z,99.90
2017-06-28T02:58:58.923Z,99.90
2017-06-28T03:01:28.131Z,99.90
2017-06-28T03:03:57.324Z,99.90
2017-06-28T03:06:26.535Z,99.90
2017-06-28T03:08:55.723Z,99.90
2017-06-28T03:11:24.935Z,99.90
2017-06-28T03:13:54.119Z,99.90
2017-06-28T03:16:23.403Z,99.90
2017-06-28T03:18:51.934Z,99.90
2017-06-28T03:21:20.454Z,99.90
2017-06-28T03:23:48.891Z,99.90
2017-06-28T03:26:17.334Z,99.90
2017-06-28T03:28:45.784Z,99.90
2017-06-28T03:31:14.216Z,99.90
2017-06-28T03:33:43.427Z,99.90
2017-06-28T03:36:12.561Z,99.90
2017-06-28T03:38:41.013Z,99.90
2017-06-28T03:41:10.206Z,99.90
2017-06-28T03:43:38.629Z,99.90
2017-06-28T03:46:07.088Z,99.90
2017-06-28T03:48:35.520Z,99.90
2017-06-28T03:51:04.168Z,99.90
2017-06-28T03:53:32.603Z,99.90
2017-06-28T03:56:01.037Z,99.90
2017-06-28T03:58:29.454Z,99.90
2017-06-28T04:00:58.064Z,99.90
2017-06-28T04:03:27.274Z,99.90
2017-06-28T04:05:55.841Z,99.90
2017-06-28T04:08:25.055Z,99.90
2017-06-28T04:10:54.168Z,99.90
2017-06-28T04:13:22.591Z,99.90
2017-06-28T04:15:51.074Z,99.90
2017-06-28T04:18:19.572Z,99.90
2017-06-28T04:20:48.016Z,99.90
2017-06-28T04:23:16.434Z,99.90
2017-06-28T04:25:44.848Z,99.90
2017-06-28T04:28:13.288Z,99.90
2017-06-28T04:30:41.902Z,99.90
2017-06-28T04:33:11.107Z,99.90
2017-06-28T04:35:39.546Z,99.90
2017-06-28T04:38:07.972Z,99.90
2017-06-28T04:40:36.402Z,99.90
2017-06-28T04:43:04.855Z,99.90
2017-06-28T04:45:34.726Z,99.90
2017-06-28T04:48:03.937Z,99.90
2017-06-28T04:50:33.159Z,99.90
2017-06-28T04:53:01.599Z,99.90
2017-06-28T04:55:30.111Z,99.90
2017-06-28T04:57:59.309Z,99.90
2017-06-28T05:00:27.923Z,99.90
2017-06-28T05:02:56.361Z,99.90
2017-06-28T05:05:25.569Z,99.90
2017-06-28T05:07:54.756Z,99.90
2017-06-28T05:10:23.952Z,99.90
2017-06-28T05:12:52.404Z,99.90
2017-06-28T05:15:20.827Z,99.90
2017-06-28T05:17:50.040Z,99.90
2017-06-28T05:20:18.485Z,99.90
2017-06-28T05:22:47.013Z,99.90
2017-06-28T05:25:15.439Z,99.90
2017-06-28T05:27:43.924Z,99.90
2017-06-28T05:30:13.123Z,99.90
2017-06-28T05:32:41.569Z,99.90
2017-06-28T05:35:10.004Z,99.90
2017-06-28T05:37:38.430Z,99.90
2017-06-28T05:40:06.857Z,99.90
2017-06-28T05:42:35.297Z,99.90
2017-06-28T05:45:03.727Z,99.90
2017-06-28T05:47:32.163Z,99.90
2017-06-28T05:50:00.578Z,99.90
2017-06-28T05:52:29.024Z,99.90
2017-06-28T05:54:57.445Z,99.90
2017-06-28T05:57:25.874Z,99.90
2017-06-28T05:59:54.298Z,99.90
2017-06-28T06:02:22.716Z,99.90
2017-06-28T06:04:51.847Z,99.90
2017-06-28T06:07:22.185Z,99.90
2017-06-28T06:09:50.732Z,99.90
2017-06-28T06:12:19.155Z,99.90
2017-06-28T06:14:47.595Z,99.90
2017-06-28T06:17:16.035Z,99.90
2017-06-28T06:19:44.483Z,99.90
2017-06-28T06:22:12.901Z,99.90
2017-06-28T06:24:41.341Z,99.90
2017-06-28T06:27:09.765Z,99.90
2017-06-28T06:29:38.190Z,99.90
2017-06-28T06:32:06.687Z,99.90
2017-06-28T06:34:35.115Z,99.90
2017-06-28T06:37:03.550Z,99.90
2017-06-28T06:39:31.987Z,99.90
2017-06-28T06:42:01.172Z,99.90
2017-06-28T06:44:29.611Z,99.90
2017-06-28T06:46:58.036Z,99.90
2017-06-28T06:49:26.476Z,99.90
2017-06-28T06:51:54.710Z,99.90
2017-06-28T06:54:23.852Z,99.90
2017-06-28T06:56:52.280Z,99.90
2017-06-28T06:59:20.726Z,99.90
2017-06-28T07:01:49.138Z,99.90
2017-06-28T07:04:17.572Z,99.90
2017-06-28T07:06:46.725Z,99.90
2017-06-28T07:09:15.187Z,99.90
2017-06-28T07:11:43.655Z,99.90
2017-06-28T07:14:12.071Z,99.90
2017-06-28T07:16:41.286Z,99.90
2017-06-28T07:19:10.476Z,99.90
2017-06-28T07:21:39.684Z,99.90
2017-06-28T07:24:08.879Z,99.90
2017-06-28T07:26:38.081Z,99.90
2017-06-28T07:29:07.285Z,99.90
2017-06-28T07:31:36.484Z,99.90
2017-06-28T07:34:04.971Z,99.90
2017-06-28T07:36:34.159Z,99.90
2017-06-28T07:39:03.014Z,99.90
2017-06-28T07:41:31.434Z,99.90
2017-06-28T07:44:00.643Z,99.90
2017-06-28T07:46:29.095Z,99.90
2017-06-28T07:48:57.533Z,99.90
2017-06-28T07:51:25.966Z,99.90
2017-06-28T07:53:55.172Z,99.90
2017-06-28T07:56:24.368Z,99.90
2017-06-28T07:58:52.817Z,99.90
2017-06-28T08:01:21.247Z,99.90
2017-06-28T08:03:49.671Z,99.90
2017-06-28T08:06:18.106Z,99.90
2017-06-28T08:08:46.546Z,99.90
2017-06-28T08:11:14.973Z,99.90
2017-06-28T08:13:43.395Z,99.90
2017-06-28T08:16:11.832Z,99.90
2017-06-28T08:18:40.271Z,99.90
2017-06-28T08:21:08.698Z,99.90
2017-06-28T08:23:37.126Z,99.90
2017-06-28T08:26:05.571Z,99.90
2017-06-28T08:28:34.031Z,99.90
2017-06-28T08:31:02.523Z,99.90
2017-06-28T08:33:30.972Z,99.90
2017-06-28T08:35:59.395Z,99.90
2017-06-28T08:38:27.832Z,99.90
2017-06-28T08:40:56.277Z,99.90
2017-06-28T08:43:24.708Z,99.90
2017-06-28T08:45:53.954Z,99.90
2017-06-28T08:48:22.387Z,99.90
2017-06-28T08:50:50.831Z,99.90
2017-06-28T08:53:19.248Z,99.90
2017-06-28T08:55:47.697Z,99.90
2017-06-28T08:58:16.127Z,99.90
2017-06-28T09:00:45.323Z,99.90
2017-06-28T09:03:14.568Z,99.90
2017-06-28T09:05:42.988Z,99.90
2017-06-28T09:08:11.409Z,99.90
2017-06-28T09:10:40.782Z,99.90
2017-06-28T09:13:10.015Z,99.90
2017-06-28T09:15:38.460Z,99.90
2017-06-28T09:18:07.751Z,99.90
2017-06-28T09:20:36.179Z,99.90
2017-06-28T09:23:04.635Z,99.90
2017-06-28T09:25:33.927Z,99.90
2017-06-28T09:28:02.359Z,99.90
2017-06-28T09:30:30.798Z,99.90
2017-06-28T09:33:00.011Z,99.90
2017-06-28T09:35:28.447Z,99.90
2017-06-28T09:37:56.920Z,99.90
2017-06-28T09:40:25.359Z,99.90
2017-06-28T09:42:53.798Z,99.90
2017-06-28T09:45:22.255Z,99.90
2017-06-28T09:47:50.696Z,99.90
2017-06-28T09:50:19.914Z,99.90
2017-06-28T09:52:48.355Z,99.90
2017-06-28T09:55:16.801Z,99.90
2017-06-28T09:57:45.229Z,99.90
2017-06-28T10:00:14.523Z,99.90
2017-06-28T10:02:43.717Z,99.90
2017-06-28T10:05:12.152Z,99.90
2017-06-28T10:07:40.592Z,99.90
2017-06-28T10:10:09.877Z,99.90
2017-06-28T10:12:38.490Z,99.90
2017-06-28T10:15:06.882Z,99.90
2017-06-28T10:17:35.311Z,99.90
2017-06-28T10:20:03.813Z,99.90
2017-06-28T10:22:32.243Z,99.90
2017-06-28T10:25:00.687Z,99.90
2017-06-28T10:27:29.138Z,99.90
2017-06-28T10:29:57.590Z,99.90
2017-06-28T10:32:25.999Z,99.00
2017-06-28T10:34:54.467Z,99.90
2017-06-28T10:37:22.918Z,99.90
2017-06-28T10:39:51.351Z,99.90
2017-06-28T10:42:19.787Z,99.90
2017-06-28T10:44:48.219Z,97.80
2017-06-28T10:47:16.672Z,97.40
2017-06-28T10:49:44.781Z,96.20
2017-06-28T10:52:13.235Z,95.30
2017-06-28T10:54:41.668Z,99.90
2017-06-28T10:57:10.776Z,96.60
2017-06-28T10:59:39.237Z,93.80
2017-06-28T11:02:07.688Z,98.00
2017-06-28T11:04:36.174Z,95.80
2017-06-28T11:07:04.810Z,96.60
2017-06-28T11:09:33.262Z,91.90
2017-06-28T11:12:01.691Z,92.70
2017-06-28T11:14:30.127Z,90.80
2017-06-28T11:16:58.602Z,91.20
2017-06-28T11:19:27.800Z,92.40
2017-06-28T11:21:56.253Z,92.40
2017-06-28T11:24:24.702Z,94.90
2017-06-28T11:26:53.156Z,95.30
2017-06-28T11:29:22.346Z,94.00
2017-06-28T11:31:51.535Z,93.90
2017-06-28T11:34:20.051Z,93.80
2017-06-28T11:36:48.563Z,93.60
2017-06-28T11:39:16.986Z,89.40
2017-06-28T11:41:45.423Z,90.20
2017-06-28T11:44:13.851Z,86.80
2017-06-28T11:46:42.282Z,84.40
2017-06-28T11:49:10.795Z,86.80
2017-06-28T11:51:39.232Z,87.00
2017-06-28T11:54:07.659Z,87.10
2017-06-28T11:56:36.089Z,89.60
2017-06-28T11:59:04.535Z,83.40
2017-06-28T12:01:32.958Z,77.50
2017-06-28T12:04:01.402Z,79.30
2017-06-28T12:06:29.827Z,84.00
2017-06-28T12:08:58.270Z,75.50
2017-06-28T12:11:26.713Z,81.90
2017-06-28T12:13:55.153Z,83.70
2017-06-28T12:16:23.611Z,76.30
2017-06-28T12:18:52.029Z,75.20
2017-06-28T12:21:20.479Z,75.80
2017-06-28T12:23:48.900Z,76.10
2017-06-28T12:26:17.343Z,69.50
2017-06-28T12:28:45.795Z,76.00
2017-06-28T12:31:14.248Z,78.70
2017-06-28T12:33:42.687Z,72.60
2017-06-28T12:36:11.131Z,74.40
2017-06-28T12:38:39.666Z,76.80
2017-06-28T12:41:08.127Z,76.60
2017-06-28T12:43:36.561Z,73.30
2017-06-28T12:46:05.005Z,78.30
2017-06-28T12:48:33.431Z,70.30
2017-06-28T12:51:01.880Z,72.70
2017-06-28T12:53:30.449Z,71.50
2017-06-28T12:55:59.543Z,70.30
2017-06-28T12:58:27.994Z,65.30
2017-06-28T13:00:56.440Z,67.30
2017-06-28T13:03:25.563Z,77.00
2017-06-28T13:05:54.003Z,62.20
2017-06-28T13:08:22.504Z,67.50
2017-06-28T13:10:50.939Z,73.30
2017-06-28T13:13:19.367Z,65.60
2017-06-28T13:15:47.803Z,69.30
2017-06-28T13:18:16.258Z,65.10
2017-06-28T13:20:44.735Z,59.80
2017-06-28T13:23:13.192Z,59.70
2017-06-28T13:25:41.658Z,61.30
2017-06-28T13:28:10.783Z,61.90
2017-06-28T13:30:39.209Z,66.10
2017-06-28T13:33:07.659Z,58.30
2017-06-28T13:35:36.059Z,60.70
2017-06-28T13:38:04.519Z,65.40
2017-06-28T13:40:32.936Z,59.10
2017-06-28T13:43:01.381Z,58.20
2017-06-28T13:45:29.815Z,58.80
2017-06-28T13:47:58.340Z,56.20
2017-06-28T13:50:26.794Z,57.40
2017-06-28T13:52:55.229Z,55.80
2017-06-28T13:55:23.677Z,57.30
2017-06-28T13:57:52.099Z,56.10
2017-06-28T14:00:20.532Z,57.80
2017-06-28T14:02:48.956Z,58.60
2017-06-28T14:05:18.131Z,58.20
2017-06-28T14:07:46.580Z,58.60
2017-06-28T14:10:15.027Z,58.00
2017-06-28T14:12:43.527Z,53.00
2017-06-28T14:15:11.962Z,53.90
2017-06-28T14:17:40.411Z,51.40
2017-06-28T14:20:08.856Z,51.80
2017-06-28T14:22:37.286Z,51.70
2017-06-28T14:25:05.772Z,48.50
2017-06-28T14:27:34.201Z,55.50
2017-06-28T14:30:02.667Z,53.00
2017-06-28T14:32:31.115Z,49.30
2017-06-28T14:34:59.535Z,48.20
2017-06-28T14:37:27.986Z,56.20
2017-06-28T14:39:56.420Z,52.40
2017-06-28T14:42:24.883Z,50.40
2017-06-28T14:44:53.323Z,56.90
2017-06-28T14:47:21.748Z,54.60
2017-06-28T14:49:50.209Z,54.20
2017-06-28T14:52:18.630Z,50.40
2017-06-28T14:54:47.819Z,49.00
2017-06-28T14:57:17.214Z,48.90
2017-06-28T14:59:45.638Z,54.10
2017-06-28T15:02:14.083Z,55.10
2017-06-28T15:04:42.491Z,51.30
2017-06-28T15:07:10.980Z,47.10
2017-06-28T15:09:39.452Z,47.20
2017-06-28T15:12:07.919Z,51.20
2017-06-28T15:14:36.344Z,47.40
2017-06-28T15:17:04.783Z,46.10
2017-06-28T15:19:34.000Z,46.40
2017-06-28T15:22:03.224Z,46.40
2017-06-28T15:24:31.709Z,46.40
2017-06-28T15:27:00.128Z,48.90
2017-06-28T15:29:28.571Z,48.10
2017-06-28T15:31:57.007Z,54.10
2017-06-28T15:34:25.459Z,52.80
2017-06-28T15:36:53.916Z,54.40
2017-06-28T15:39:22.359Z,49.10
2017-06-28T15:41:50.825Z,50.10
2017-06-28T15:44:19.253Z,52.20
2017-06-28T15:46:47.691Z,47.30
2017-06-28T15:49:16.124Z,50.00
2017-06-28T15:51:44.571Z,48.40
2017-06-28T15:54:22.990Z,50.80
2017-06-28T15:56:52.523Z,49.30
2017-06-28T15:59:20.957Z,46.40
2017-06-28T16:01:49.391Z,53.80
2017-06-28T16:04:17.846Z,51.90
2017-06-28T16:06:46.297Z,52.30
2017-06-28T16:09:14.759Z,52.90
2017-06-28T16:11:43.198Z,50.10
2017-06-28T16:14:11.650Z,50.60
2017-06-28T16:16:40.103Z,48.70
2017-06-28T16:19:08.563Z,56.40
2017-06-28T16:21:37.011Z,54.20
2017-06-28T16:24:05.518Z,55.00
2017-06-28T16:26:33.972Z,53.10
2017-06-28T16:29:02.414Z,53.10
2017-06-28T16:31:30.844Z,53.00
2017-06-28T16:33:59.335Z,58.00
2017-06-28T16:36:27.769Z,56.30
2017-06-28T16:38:56.292Z,57.50
2017-06-28T16:41:24.719Z,56.00
2017-06-28T16:43:53.149Z,54.40
2017-06-28T16:46:21.599Z,56.10
2017-06-28T16:48:50.041Z,57.40
2017-06-28T16:51:18.491Z,57.90
2017-06-28T16:53:47.043Z,53.90
2017-06-28T16:56:15.487Z,55.70
2017-06-28T16:58:43.961Z,58.60
2017-06-28T17:01:12.356Z,56.70
2017-06-28T17:03:40.802Z,57.90
2017-06-28T17:06:09.330Z,62.30
2017-06-28T17:08:37.775Z,66.10
2017-06-28T17:11:06.191Z,58.60
2017-06-28T17:13:34.643Z,65.30
2017-06-28T17:16:03.095Z,64.20
2017-06-28T17:18:31.509Z,64.80
2017-06-28T17:21:00.411Z,59.50
2017-06-28T17:23:28.978Z,64.30
2017-06-28T17:25:57.439Z,59.60
2017-06-28T17:28:25.857Z,66.30
2017-06-28T17:30:54.319Z,70.70
2017-06-28T17:33:22.765Z,69.50
2017-06-28T17:35:51.206Z,63.70
2017-06-28T17:38:19.647Z,67.80
2017-06-28T17:40:48.120Z,67.40
2017-06-28T17:43:16.542Z,70.00
2017-06-28T17:45:45.003Z,70.70
2017-06-28T17:48:13.456Z,67.00
2017-06-28T17:50:41.915Z,63.60
2017-06-28T17:53:10.359Z,59.80
2017-06-28T17:55:38.808Z,63.20
2017-06-28T17:58:07.285Z,63.30
2017-06-28T18:00:37.410Z,62.20
2017-06-28T18:03:06.649Z,67.70
2017-06-28T18:05:35.082Z,67.30
2017-06-28T18:08:03.563Z,69.40
2017-06-28T18:10:32.002Z,58.10
2017-06-28T18:13:00.461Z,61.60
2017-06-28T18:15:29.683Z,56.20
2017-06-28T18:17:58.136Z,56.20
2017-06-28T18:20:26.575Z,64.80
2017-06-28T18:22:55.064Z,67.20
2017-06-28T18:25:23.504Z,59.10
2017-06-28T18:27:51.946Z,58.80
2017-06-28T18:30:21.155Z,60.70
2017-06-28T18:32:49.650Z,60.60
2017-06-28T18:35:18.864Z,64.70
2017-06-28T18:37:47.416Z,64.50
2017-06-28T18:40:16.625Z,68.00
2017-06-28T18:42:45.063Z,66.80
2017-06-28T18:45:13.507Z,64.10
2017-06-28T18:47:41.971Z,65.70
2017-06-28T18:50:10.409Z,63.00
2017-06-28T18:52:38.847Z,63.40
2017-06-28T18:55:07.350Z,64.50
2017-06-28T18:57:35.770Z,64.20
2017-06-28T19:00:04.217Z,68.40
2017-06-28T19:02:32.675Z,69.20
2017-06-28T19:05:01.133Z,71.00
2017-06-28T19:07:29.615Z,69.20
2017-06-28T19:09:58.035Z,70.70
2017-06-28T19:12:26.486Z,78.00
2017-06-28T19:14:55.731Z,73.00
2017-06-28T19:17:24.204Z,72.90
2017-06-28T19:19:52.647Z,71.40
2017-06-28T19:22:21.079Z,73.60
2017-06-28T19:24:49.664Z,73.60
2017-06-28T19:27:18.084Z,74.60
2017-06-28T19:29:46.588Z,75.10
2017-06-28T19:32:15.020Z,76.90
2017-06-28T19:34:43.500Z,77.40
2017-06-28T19:37:11.934Z,77.40
2017-06-28T19:39:40.420Z,84.30
2017-06-28T19:42:08.968Z,86.00
2017-06-28T19:44:37.528Z,89.30
2017-06-28T19:47:06.033Z,92.50
2017-06-28T19:49:34.474Z,94.10
2017-06-28T19:52:04.461Z,99.90
2017-06-28T19:54:33.038Z,99.90
2017-06-28T19:57:01.581Z,99.90
2017-06-28T19:59:30.051Z,99.90
2017-06-28T20:01:58.472Z,99.90
2017-06-28T20:04:26.986Z,99.90
2017-06-28T20:06:55.436Z,99.90
2017-06-28T20:09:23.853Z,99.90
2017-06-28T20:11:52.328Z,99.90
2017-06-28T20:14:20.804Z,99.90
2017-06-28T20:16:50.048Z,99.90
2017-06-28T20:19:18.560Z,99.90
2017-06-28T20:21:47.104Z,99.90
2017-06-28T20:24:15.582Z,99.90
2017-06-28T20:26:44.043Z,99.90
2017-06-28T20:29:13.267Z,99.90
2017-06-28T20:31:41.709Z,99.90
2017-06-28T20:34:10.946Z,99.90
2017-06-28T20:36:39.614Z,99.90
2017-06-28T20:39:08.046Z,99.90
2017-06-28T20:41:36.503Z,99.90
2017-06-28T20:44:04.919Z,99.90
2017-06-28T20:46:33.450Z,99.90
2017-06-28T20:49:01.911Z,99.90
2017-06-28T20:51:31.197Z,99.90
2017-06-28T20:53:59.607Z,99.90
2017-06-28T20:56:28.095Z,99.90
2017-06-28T20:58:56.591Z,99.90
2017-06-28T21:01:25.022Z,99.90
2017-06-28T21:03:53.476Z,99.90
2017-06-28T21:06:21.915Z,99.90
2017-06-28T21:08:50.359Z,99.90
2017-06-28T21:11:18.903Z,99.90
2017-06-28T21:13:47.331Z,99.90
2017-06-28T21:16:16.552Z,99.90
2017-06-28T21:18:45.767Z,99.90
2017-06-28T21:21:14.209Z,99.90
2017-06-28T21:23:42.624Z,99.90
2017-06-28T21:26:11.084Z,99.90
2017-06-28T21:28:40.284Z,99.90
2017-06-28T21:31:09.496Z,99.90
2017-06-28T21:33:37.940Z,99.90
2017-06-28T21:36:06.360Z,99.90
2017-06-28T21:38:35.579Z,99.90
2017-06-28T21:41:04.007Z,99.90
2017-06-28T21:43:32.448Z,99.90
2017-06-28T21:46:00.895Z,99.90
2017-06-28T21:48:30.273Z,99.90
2017-06-28T21:50:58.699Z,99.90
2017-06-28T21:53:27.207Z,99.90
2017-06-28T21:55:55.663Z,99.90
2017-06-28T21:58:24.101Z,99.90
2017-06-28T22:00:53.218Z,99.90
2017-06-28T22:03:21.686Z,99.90
2017-06-28T22:05:50.106Z,99.90
2017-06-28T22:08:18.592Z,99.90
2017-06-28T22:10:47.032Z,99.90
2017-06-28T22:13:15.486Z,99.90
2017-06-28T22:15:43.908Z,99.90
2017-06-28T22:18:12.419Z,99.90
2017-06-28T22:20:40.155Z,99.90
2017-06-28T22:23:09.368Z,99.90
2017-06-28T22:25:37.799Z,99.90
2017-06-28T22:28:06.223Z,99.90
2017-06-28T22:30:35.492Z,99.90
2017-06-28T22:33:03.922Z,99.90
2017-06-28T22:35:32.367Z,99.90
2017-06-28T22:38:00.847Z,99.90
2017-06-28T22:40:29.465Z,99.90
2017-06-28T22:42:58.572Z,99.90
2017-06-28T22:45:27.010Z,99.90
2017-06-28T22:47:55.460Z,99.90
2017-06-28T22:50:23.888Z,99.90
2017-06-28T22:52:52.332Z,99.90
2017-06-28T22:55:20.751Z,99.90
2017-06-28T22:57:49.946Z,99.90
2017-06-28T23:00:19.143Z,99.90
2017-06-28T23:02:47.594Z,99.90
2017-06-28T23:05:16.226Z,99.90
2017-06-28T23:07:45.443Z,99.90
2017-06-28T23:10:13.899Z,99.90
2017-06-28T23:12:43.092Z,99.90
2017-06-28T23:15:12.281Z,99.90
2017-06-28T23:17:40.723Z,99.90
2017-06-28T23:20:09.172Z,99.90
2017-06-28T23:22:38.371Z,99.90
2017-06-28T23:25:06.794Z,99.90
2017-06-28T23:27:35.227Z,99.90
2017-06-28T23:30:04.433Z,99.90
2017-06-28T23:32:33.635Z,99.90
2017-06-28T23:35:02.082Z,99.90
2017-06-28T23:37:30.519Z,99.90
2017-06-28T23:40:00.399Z,99.90
2017-06-28T23:42:29.610Z,99.90
2017-06-28T23:44:58.068Z,99.90
2017-06-28T23:47:26.471Z,99.90
2017-06-28T23:49:54.902Z,99.90
2017-06-28T23:52:23.346Z,99.90
2017-06-28T23:54:51.794Z,99.90
2017-06-28T23:57:20.235Z,99.90
2017-06-28T23:59:48.688Z,99.90
